Time;durP1;ratioP1;P1;durP2;ratioP2;P2;SDS_P1;SDS_P2;PMS_P1;PMS_P2;Temp;Humidity;BMP_temperature;BMP_pressure;BME280_temperature;BME280_humidity;BME280_pressure;Samples;Min_cycle;Max_cycle;Signal;HPM_P1;HPM_P2
2024/01/06 00:02:22;;;;;;;6.25;4.90;;;6.20;99.90;;;;;;5052759;28;20189;-90
2024/01/06 00:04:49;;;;;;;6.15;4.97;;;6.20;99.90;;;;;;5056686;28;20213;-91
2024/01/06 00:07:16;;;;;;;6.15;4.50;;;6.20;99.90;;;;;;5030899;28;20227;-91
2024/01/06 00:09:43;;;;;;;5.78;4.97;;;6.20;99.90;;;;;;5034324;28;20204;-91
2024/01/06 00:12:11;;;;;;;7.32;5.18;;;6.10;99.90;;;;;;5034684;28;20285;-91
2024/01/06 00:14:38;;;;;;;6.07;5.47;;;6.10;99.90;;;;;;5053411;28;20193;-91
2024/01/06 00:17:05;;;;;;;8.88;5.45;;;6.10;99.90;;;;;;5037615;28;20581;-90
2024/01/06 00:19:32;;;;;;;9.70;6.30;;;6.10;99.90;;;;;;5042393;28;20228;-91
2024/01/06 00:22:00;;;;;;;8.30;6.50;;;6.20;99.90;;;;;;5052173;28;20574;-91
2024/01/06 00:24:27;;;;;;;7.32;5.85;;;6.10;99.90;;;;;;5051331;28;20198;-91
2024/01/06 00:26:54;;;;;;;8.45;6.80;;;6.10;99.90;;;;;;5053819;28;20537;-90
2024/01/06 00:29:22;;;;;;;8.23;6.40;;;6.10;99.90;;;;;;5060208;28;20209;-91
2024/01/06 00:31:49;;;;;;;8.52;5.97;;;6.10;99.90;;;;;;5057144;28;20193;-91
2024/01/06 00:34:16;;;;;;;6.78;6.05;;;6.10;99.90;;;;;;5040365;28;20202;-91
2024/01/06 00:36:43;;;;;;;8.70;6.65;;;6.00;99.90;;;;;;5053861;28;20312;-91
2024/01/06 00:39:10;;;;;;;7.10;6.38;;;5.90;99.90;;;;;;5054772;28;20203;-91
2024/01/06 00:41:37;;;;;;;9.35;6.68;;;6.00;99.90;;;;;;5056459;28;20216;-91
2024/01/06 00:44:04;;;;;;;8.15;7.20;;;5.90;99.90;;;;;;5050084;28;20194;-91
2024/01/06 00:46:33;;;;;;;9.65;6.95;;;5.90;99.90;;;;;;5017990;28;20244;-91
2024/01/06 00:49:00;;;;;;;8.73;6.75;;;5.80;99.90;;;;;;5031795;28;20206;-91
2024/01/06 00:51:27;;;;;;;6.90;6.00;;;5.90;99.90;;;;;;5054349;28;20217;-91
2024/01/06 00:53:55;;;;;;;7.07;6.30;;;5.90;99.90;;;;;;5049305;28;20822;-91
2024/01/06 00:56:22;;;;;;;8.68;6.53;;;5.90;99.90;;;;;;5023807;28;20220;-91
2024/01/06 00:58:49;;;;;;;9.55;6.00;;;5.90;99.90;;;;;;5053921;28;20209;-92
2024/01/06 01:01:16;;;;;;;7.93;6.00;;;5.80;99.90;;;;;;5055312;28;20541;-91
2024/01/06 01:03:45;;;;;;;7.15;5.78;;;5.80;99.90;;;;;;5044575;28;20197;-91
2024/01/06 01:06:11;;;;;;;4.18;3.78;;;5.80;99.90;;;;;;5048671;28;20206;-91
2024/01/06 01:08:38;;;;;;;5.57;4.40;;;5.80;99.90;;;;;;5053118;28;20202;-91
2024/01/06 01:11:05;;;;;;;5.13;3.85;;;5.80;99.90;;;;;;5054587;28;20198;-91
2024/01/06 01:13:32;;;;;;;5.82;4.00;;;5.80;99.90;;;;;;5051241;28;20577;-91
2024/01/06 01:15:59;;;;;;;5.55;4.15;;;5.80;99.90;;;;;;5053366;28;20210;-91
2024/01/06 01:18:26;;;;;;;5.90;4.15;;;5.90;99.90;;;;;;5053154;28;20209;-91
2024/01/06 01:20:54;;;;;;;6.18;4.25;;;6.00;99.90;;;;;;5057953;28;20201;-90
2024/01/06 01:23:21;;;;;;;7.95;6.03;;;6.00;99.90;;;;;;5056717;28;20213;-90
2024/01/06 01:25:48;;;;;;;7.07;6.05;;;5.90;99.90;;;;;;5057939;28;20874;-91
2024/01/06 01:28:16;;;;;;;7.00;5.85;;;5.80;99.90;;;;;;5069796;28;20206;-90
2024/01/06 01:30:43;;;;;;;7.72;5.50;;;5.80;99.90;;;;;;5038353;28;20617;-91
2024/01/06 01:33:10;;;;;;;4.78;4.00;;;5.80;99.90;;;;;;5034245;28;20205;-90
2024/01/06 01:35:37;;;;;;;4.72;3.53;;;5.80;99.90;;;;;;5051587;28;20228;-90
2024/01/06 01:38:05;;;;;;;4.13;3.10;;;5.80;99.90;;;;;;5035721;28;20208;-90
2024/01/06 01:40:32;;;;;;;5.78;3.28;;;5.80;99.90;;;;;;5015231;28;20194;-90
2024/01/06 01:42:59;;;;;;;4.35;3.53;;;5.90;99.90;;;;;;5032473;28;20208;-90
2024/01/06 01:45:26;;;;;;;5.68;3.97;;;5.80;99.90;;;;;;5054940;28;20206;-90
2024/01/06 01:47:53;;;;;;;4.40;3.67;;;5.80;99.90;;;;;;5019999;28;20202;-90
2024/01/06 01:50:22;;;;;;;4.97;4.30;;;5.80;99.90;;;;;;5061885;28;20201;-90
2024/01/06 01:52:49;;;;;;;4.82;4.18;;;5.90;99.90;;;;;;5053318;28;20190;-90
2024/01/06 01:55:18;;;;;;;4.88;3.97;;;6.00;99.90;;;;;;5053772;28;20204;-91
2024/01/06 01:57:45;;;;;;;4.88;4.22;;;5.90;99.90;;;;;;5063074;28;20229;-90
2024/01/06 02:00:13;;;;;;;6.30;4.60;;;6.00;99.90;;;;;;5055139;28;20198;-91
2024/01/06 02:02:40;;;;;;;5.38;4.20;;;6.10;99.90;;;;;;5038043;28;20201;-90
2024/01/06 02:05:07;;;;;;;4.63;4.22;;;6.10;99.90;;;;;;5056790;28;20222;-90
2024/01/06 02:07:34;;;;;;;8.65;5.07;;;6.10;99.90;;;;;;5052405;28;20639;-90
2024/01/06 02:10:01;;;;;;;4.88;3.58;;;6.00;99.90;;;;;;5056919;28;20201;-90
2024/01/06 02:12:28;;;;;;;4.07;3.63;;;5.90;99.90;;;;;;5052191;28;20227;-90
2024/01/06 02:14:55;;;;;;;3.90;3.50;;;5.80;99.90;;;;;;5047899;28;20942;-90
2024/01/06 02:17:22;;;;;;;4.40;3.63;;;5.70;99.90;;;;;;5018475;28;20222;-90
2024/01/06 02:19:49;;;;;;;5.00;3.92;;;5.70;99.90;;;;;;5056776;28;20208;-90
2024/01/06 02:22:18;;;;;;;4.72;3.42;;;5.60;99.90;;;;;;5031150;28;20573;-90
2024/01/06 02:24:45;;;;;;;4.35;3.42;;;5.60;99.90;;;;;;5056483;28;20197;-91
2024/01/06 02:27:12;;;;;;;4.07;3.10;;;5.50;99.90;;;;;;5057020;28;20194;-90
2024/01/06 02:29:39;;;;;;;4.40;2.97;;;5.50;99.90;;;;;;5040237;28;20244;-91
2024/01/06 02:32:06;;;;;;;3.47;3.03;;;5.50;99.90;;;;;;5064521;28;20208;-91
2024/01/06 02:34:34;;;;;;;4.03;3.13;;;5.50;99.90;;;;;;5020831;28;20202;-91
2024/01/06 02:37:01;;;;;;;3.92;3.00;;;5.60;99.90;;;;;;5039507;28;20222;-90
2024/01/06 02:39:29;;;;;;;4.07;2.75;;;5.70;99.90;;;;;;5041159;28;20200;-91
2024/01/06 02:41:56;;;;;;;3.38;2.45;;;5.80;99.90;;;;;;5036379;28;20204;-91
2024/01/06 02:44:23;;;;;;;2.95;2.63;;;5.80;99.90;;;;;;5034688;28;20332;-91
2024/01/06 02:46:50;;;;;;;3.40;2.22;;;5.80;99.90;;;;;;5053847;28;20553;-91
2024/01/06 02:49:17;;;;;;;2.67;2.40;;;5.90;99.90;;;;;;5053378;28;20206;-91
2024/01/06 02:51:44;;;;;;;5.40;4.22;;;5.90;99.90;;;;;;5034841;28;20217;-91
2024/01/06 02:54:11;;;;;;;10.38;7.53;;;5.90;99.90;;;;;;5037218;28;20654;-91
2024/01/06 02:56:39;;;;;;;4.30;3.45;;;6.00;99.90;;;;;;5051930;28;20675;-91
2024/01/06 02:59:06;;;;;;;3.40;2.58;;;5.90;99.90;;;;;;5025409;28;20209;-91
2024/01/06 03:01:34;;;;;;;2.60;2.40;;;5.90;99.90;;;;;;5056524;28;20208;-92
2024/01/06 03:04:01;;;;;;;3.42;3.13;;;5.90;99.90;;;;;;5034189;28;20210;-92
2024/01/06 03:06:28;;;;;;;3.75;2.95;;;5.90;99.90;;;;;;5050186;28;20220;-91
2024/01/06 03:08:55;;;;;;;3.83;3.42;;;5.90;99.90;;;;;;5034972;28;20718;-91
2024/01/06 03:11:22;;;;;;;4.65;3.55;;;6.00;99.90;;;;;;5056199;28;20220;-91
2024/01/06 03:13:50;;;;;;;3.85;3.35;;;6.00;99.90;;;;;;5058225;28;20308;-91
2024/01/06 03:16:17;;;;;;;4.88;3.58;;;5.90;99.90;;;;;;5032771;28;20222;-91
2024/01/06 03:18:46;;;;;;;4.78;4.20;;;5.80;99.90;;;;;;5041965;28;20207;-90
2024/01/06 03:21:20;;;;;;;5.32;3.97;;;5.70;99.90;;;;;;5052375;28;20198;-90
2024/01/06 03:23:47;;;;;;;4.07;3.67;;;5.70;99.90;;;;;;5038737;28;20197;-91
2024/01/06 03:26:14;;;;;;;5.13;3.70;;;5.70;99.90;;;;;;5053931;28;20212;-91
2024/01/06 03:28:42;;;;;;;4.90;3.72;;;5.60;99.90;;;;;;5037221;28;20673;-91
2024/01/06 03:31:10;;;;;;;4.38;3.45;;;5.50;99.90;;;;;;5037729;28;20673;-91
2024/01/06 03:33:37;;;;;;;4.25;3.75;;;5.50;99.90;;;;;;5062258;28;20201;-91
2024/01/06 03:36:06;;;;;;;4.93;3.63;;;5.50;99.90;;;;;;5041921;28;20208;-90
2024/01/06 03:38:34;;;;;;;3.70;3.33;;;5.50;99.90;;;;;;5046310;28;20201;-90
2024/01/06 03:41:01;;;;;;;4.63;4.00;;;5.50;99.90;;;;;;5057613;28;20198;-91
2024/01/06 03:43:27;;;;;;;5.03;4.07;;;5.50;99.90;;;;;;5057971;28;20201;-90
2024/01/06 03:45:55;;;;;;;5.22;3.53;;;5.50;99.90;;;;;;5037981;28;20201;-90
2024/01/06 03:48:23;;;;;;;4.25;3.47;;;5.40;99.90;;;;;;5036206;28;20253;-90
2024/01/06 03:50:50;;;;;;;3.78;3.45;;;5.30;99.90;;;;;;5051374;28;20202;-91
2024/01/06 03:53:17;;;;;;;2.92;2.53;;;5.30;99.90;;;;;;5057984;28;20202;-90
2024/01/06 03:55:44;;;;;;;3.85;3.05;;;5.30;99.90;;;;;;5057019;28;20587;-90
2024/01/06 03:58:11;;;;;;;4.93;3.15;;;5.40;99.90;;;;;;5050999;28;20213;-91
2024/01/06 04:00:38;;;;;;;2.80;2.60;;;5.40;99.90;;;;;;5033844;28;20205;-91
2024/01/06 04:03:06;;;;;;;2.55;2.35;;;5.50;99.90;;;;;;5053090;28;20650;-90
2024/01/06 04:05:34;;;;;;;2.53;2.30;;;5.40;99.90;;;;;;5038097;28;20690;-90
2024/01/06 04:08:01;;;;;;;2.15;1.95;;;5.50;99.90;;;;;;5057970;28;20209;-90
2024/01/06 04:10:28;;;;;;;1.77;1.67;;;5.40;99.90;;;;;;5032720;28;20209;-90
2024/01/06 04:12:55;;;;;;;2.50;1.90;;;5.30;99.90;;;;;;5035371;28;20205;-90
2024/01/06 04:15:22;;;;;;;2.33;1.80;;;5.30;99.90;;;;;;5039829;28;20793;-91
2024/01/06 04:17:50;;;;;;;2.28;1.70;;;5.20;99.90;;;;;;5071561;28;20228;-90
2024/01/06 04:20:17;;;;;;;2.10;1.90;;;5.10;99.90;;;;;;5047162;28;20197;-90
2024/01/06 04:22:45;;;;;;;2.13;1.83;;;5.10;99.90;;;;;;5052382;28;20297;-90
2024/01/06 04:25:12;;;;;;;2.60;1.97;;;5.10;99.90;;;;;;5057889;28;20208;-90
2024/01/06 04:27:39;;;;;;;2.38;1.70;;;5.10;99.90;;;;;;5039911;28;20210;-90
2024/01/06 04:30:07;;;;;;;2.03;1.63;;;5.20;99.90;;;;;;5067125;28;20665;-90
2024/01/06 04:32:34;;;;;;;1.83;1.73;;;5.20;99.90;;;;;;5014614;28;20672;-90
2024/01/06 04:35:01;;;;;;;1.58;1.40;;;5.20;99.90;;;;;;5065813;28;20567;-90
2024/01/06 04:37:28;;;;;;;1.27;1.17;;;5.30;99.90;;;;;;5055239;28;20711;-90
2024/01/06 04:39:57;;;;;;;1.05;1.05;;;5.30;99.90;;;;;;5033111;28;20220;-90
2024/01/06 04:42:23;;;;;;;1.13;1.03;;;5.30;99.90;;;;;;5048674;28;20204;-90
2024/01/06 04:44:50;;;;;;;1.35;1.13;;;5.20;99.90;;;;;;5055342;28;20224;-90
2024/01/06 04:47:17;;;;;;;1.20;1.10;;;5.20;99.90;;;;;;5045075;28;20206;-90
2024/01/06 04:49:44;;;;;;;1.00;0.90;;;5.20;99.90;;;;;;5040809;28;20205;-90
2024/01/06 04:52:11;;;;;;;0.80;0.80;;;5.20;99.90;;;;;;5055888;28;20605;-91
2024/01/06 04:54:38;;;;;;;0.87;0.83;;;5.30;99.90;;;;;;5057094;28;20650;-90
2024/01/06 04:57:07;;;;;;;0.83;0.80;;;5.10;99.90;;;;;;5054483;28;20244;-90
2024/01/06 04:59:33;;;;;;;0.73;0.73;;;5.10;99.90;;;;;;5051489;28;20194;-90
2024/01/06 05:02:00;;;;;;;0.83;0.80;;;5.10;99.90;;;;;;5054983;28;20189;-89
2024/01/06 05:04:28;;;;;;;0.70;0.70;;;5.00;99.90;;;;;;5035497;28;20221;-89
2024/01/06 05:06:55;;;;;;;0.70;0.70;;;4.90;99.90;;;;;;5052686;28;20297;-90
2024/01/06 05:09:22;;;;;;;0.70;0.70;;;4.90;99.90;;;;;;5057783;28;20202;-89
2024/01/06 05:11:49;;;;;;;0.80;0.80;;;4.90;99.90;;;;;;5073720;28;20198;-90
2024/01/06 05:14:17;;;;;;;0.80;0.80;;;4.90;99.90;;;;;;5054658;28;20201;-90
2024/01/06 05:16:44;;;;;;;0.83;0.83;;;4.80;99.90;;;;;;5054760;28;20205;-89
2024/01/06 05:19:11;;;;;;;0.70;0.70;;;4.90;99.90;;;;;;5038323;28;20194;-89
2024/01/06 05:21:38;;;;;;;0.80;0.80;;;5.00;99.90;;;;;;5035437;28;20205;-90
2024/01/06 05:24:05;;;;;;;0.70;0.70;;;5.00;99.90;;;;;;5056312;28;20210;-90
2024/01/06 05:26:32;;;;;;;1.03;0.70;;;5.00;99.90;;;;;;5054493;28;20205;-90
2024/01/06 05:28:59;;;;;;;0.80;0.80;;;4.90;99.90;;;;;;5037603;28;20197;-89
2024/01/06 05:31:28;;;;;;;0.80;0.80;;;4.80;99.90;;;;;;5056601;28;20209;-89
2024/01/06 05:33:54;;;;;;;0.87;0.80;;;4.70;99.90;;;;;;5059096;28;20193;-89
2024/01/06 05:36:21;;;;;;;0.77;0.77;;;4.80;99.90;;;;;;5059721;28;20213;-89
2024/01/06 05:38:48;;;;;;;0.70;0.70;;;4.60;99.90;;;;;;5066501;28;20218;-89
2024/01/06 05:41:15;;;;;;;0.70;0.70;;;4.60;99.90;;;;;;5062371;28;20201;-90
2024/01/06 05:43:42;;;;;;;0.80;0.80;;;4.70;99.90;;;;;;5055531;28;20194;-91
2024/01/06 05:46:10;;;;;;;0.80;0.80;;;4.80;99.90;;;;;;5060099;28;20229;-91
2024/01/06 05:48:40;;;;;;;1.10;0.90;;;4.80;99.90;;;;;;5039239;28;20213;-91
2024/01/06 05:51:07;;;;;;;1.00;1.00;;;4.70;99.90;;;;;;5052191;28;20296;-91
2024/01/06 05:53:34;;;;;;;0.77;0.77;;;4.70;99.90;;;;;;5040395;28;20202;-90
2024/01/06 05:56:01;;;;;;;1.07;0.80;;;4.70;99.90;;;;;;5055579;28;20665;-91
2024/01/06 05:58:27;;;;;;;1.00;1.00;;;4.70;99.90;;;;;;5054036;28;20225;-90
2024/01/06 06:00:54;;;;;;;0.77;0.77;;;4.80;99.90;;;;;;5058750;28;20209;-91
2024/01/06 06:03:21;;;;;;;0.70;0.70;;;4.70;99.90;;;;;;5057346;28;20204;-91
2024/01/06 06:05:49;;;;;;;1.10;1.00;;;4.60;99.90;;;;;;5055836;28;20221;-91
2024/01/06 06:08:16;;;;;;;0.90;0.90;;;4.60;99.90;;;;;;5057610;28;20210;-90
2024/01/06 06:10:59;;;;;;;0.80;0.80;;;4.70;99.90;;;;;;5060268;28;20580;-91
2024/01/06 06:13:26;;;;;;;1.17;1.10;;;4.80;99.90;;;;;;5058278;28;20327;-91
2024/01/06 06:15:53;;;;;;;0.93;0.90;;;4.70;99.90;;;;;;5055713;28;20643;-90
2024/01/06 06:18:20;;;;;;;1.17;0.90;;;4.70;99.90;;;;;;5056877;28;20225;-90
2024/01/06 06:20:47;;;;;;;1.30;1.20;;;4.80;99.90;;;;;;5073642;28;20198;-90
2024/01/06 06:23:15;;;;;;;2.70;2.10;;;4.80;99.90;;;;;;5053619;28;20211;-89
2024/01/06 06:25:42;;;;;;;3.33;1.80;;;4.90;99.90;;;;;;5029967;28;20211;-90
2024/01/06 06:28:09;;;;;;;2.53;1.90;;;4.80;99.90;;;;;;5038659;28;20201;-90
2024/01/06 06:30:36;;;;;;;3.27;1.90;;;4.80;99.90;;;;;;5056911;28;20202;-90
2024/01/06 06:33:03;;;;;;;2.63;1.60;;;4.70;99.90;;;;;;5061859;28;20667;-90
2024/01/06 06:35:30;;;;;;;2.90;2.07;;;4.60;99.90;;;;;;5036681;28;20201;-90
2024/01/06 06:37:56;;;;;;;2.30;1.93;;;4.50;99.90;;;;;;5061891;28;20701;-90
2024/01/06 06:40:25;;;;;;;3.00;2.00;;;4.50;99.90;;;;;;5036323;28;20202;-90
2024/01/06 06:42:51;;;;;;;2.70;1.83;;;4.50;99.90;;;;;;5035853;28;21369;-90
2024/01/06 06:45:22;;;;;;;2.63;2.00;;;4.50;99.90;;;;;;5052180;28;20213;-90
2024/01/06 06:47:50;;;;;;;2.07;1.60;;;4.40;99.90;;;;;;5054979;28;20213;-89
2024/01/06 06:50:17;;;;;;;2.00;1.70;;;4.50;99.90;;;;;;5056403;28;20201;-90
2024/01/06 06:52:43;;;;;;;3.33;1.80;;;4.50;99.90;;;;;;5055197;28;20201;-90
2024/01/06 06:55:10;;;;;;;2.10;1.60;;;4.50;99.90;;;;;;5071723;28;20659;-91
2024/01/06 06:57:39;;;;;;;2.30;1.63;;;4.40;99.90;;;;;;5034517;28;20218;-90
2024/01/06 07:00:08;;;;;;;2.00;1.80;;;4.50;99.90;;;;;;5061731;28;20199;-90
2024/01/06 07:02:35;;;;;;;2.43;1.77;;;4.40;99.90;;;;;;5053357;28;20201;-90
2024/01/06 07:05:02;;;;;;;2.07;1.87;;;4.40;99.90;;;;;;5054895;28;20261;-89
2024/01/06 07:07:29;;;;;;;3.73;2.03;;;4.40;99.90;;;;;;5035905;28;20210;-89
2024/01/06 07:09:55;;;;;;;1.80;1.70;;;4.30;99.90;;;;;;5059088;28;20202;-89
2024/01/06 07:12:22;;;;;;;2.43;2.03;;;4.20;99.90;;;;;;5052567;28;20639;-89
2024/01/06 07:14:50;;;;;;;2.80;2.23;;;4.30;99.90;;;;;;5051337;28;20204;-90
2024/01/06 07:17:17;;;;;;;2.87;2.17;;;4.20;99.90;;;;;;5054006;28;20210;-86
2024/01/06 07:19:44;;;;;;;5.87;2.43;;;4.30;99.90;;;;;;5060201;28;20197;-88
2024/01/06 07:22:11;;;;;;;2.43;2.20;;;4.40;99.90;;;;;;5030493;28;20205;-87
2024/01/06 07:24:38;;;;;;;2.33;2.00;;;4.30;99.90;;;;;;5064892;28;20208;-87
2024/01/06 07:27:05;;;;;;;3.77;2.27;;;4.30;99.90;;;;;;5054798;28;20671;-88
2024/01/06 07:29:32;;;;;;;2.20;1.93;;;4.30;99.90;;;;;;5052327;28;20677;-88
2024/01/06 07:32:00;;;;;;;3.07;2.00;;;4.40;99.90;;;;;;5033423;28;20684;-88
2024/01/06 07:34:27;;;;;;;1.90;1.80;;;4.50;99.90;;;;;;5056738;28;20199;-88
2024/01/06 07:36:53;;;;;;;2.63;2.13;;;4.50;99.90;;;;;;5032299;28;20228;-88
2024/01/06 07:39:20;;;;;;;2.93;1.97;;;4.40;99.90;;;;;;5049864;28;20224;-88
2024/01/06 07:41:47;;;;;;;3.20;2.07;;;4.40;99.90;;;;;;5056891;28;20205;-88
2024/01/06 07:44:15;;;;;;;2.70;1.90;;;4.40;99.90;;;;;;5043860;28;20201;-88
2024/01/06 07:46:43;;;;;;;2.63;1.90;;;4.40;99.90;;;;;;5035756;28;20198;-88
2024/01/06 07:49:11;;;;;;;2.10;1.90;;;4.50;99.90;;;;;;5053008;28;20203;-88
2024/01/06 07:51:38;;;;;;;3.60;2.30;;;4.60;99.90;;;;;;5038643;28;20259;-88
2024/01/06 07:54:06;;;;;;;2.73;2.13;;;4.50;99.90;;;;;;5034540;28;20560;-88
2024/01/06 07:56:33;;;;;;;2.17;1.90;;;4.40;99.90;;;;;;5046058;28;20677;-88
2024/01/06 07:59:00;;;;;;;4.50;2.50;;;4.50;99.90;;;;;;5055048;28;20222;-88
2024/01/06 08:01:26;;;;;;;2.57;2.23;;;4.50;99.90;;;;;;5046461;28;20288;-88
2024/01/06 08:03:53;;;;;;;4.37;2.43;;;4.40;99.90;;;;;;5048567;28;20714;-87
2024/01/06 08:06:22;;;;;;;2.10;1.70;;;4.40;99.90;;;;;;5050165;28;20243;-87
2024/01/06 08:08:48;;;;;;;2.10;1.90;;;4.30;99.90;;;;;;5053264;28;20198;-87
2024/01/06 08:11:15;;;;;;;3.10;1.97;;;4.30;99.90;;;;;;5057167;28;20197;-87
2024/01/06 08:13:42;;;;;;;2.20;2.00;;;4.40;99.90;;;;;;5058026;28;20745;-89
2024/01/06 08:16:09;;;;;;;4.33;2.20;;;4.50;99.90;;;;;;5047623;28;20198;-89
2024/01/06 08:18:36;;;;;;;2.73;2.20;;;4.60;99.90;;;;;;5060928;28;20233;-89
2024/01/06 08:21:03;;;;;;;3.40;1.90;;;4.50;99.90;;;;;;5056360;28;20193;-88
2024/01/06 08:23:31;;;;;;;3.83;1.97;;;4.50;99.90;;;;;;5057152;28;20554;-89
2024/01/06 08:25:58;;;;;;;4.03;1.63;;;4.60;99.90;;;;;;5052106;28;20202;-88
2024/01/06 08:28:25;;;;;;;3.17;1.90;;;4.60;99.90;;;;;;5053155;28;20221;-89
2024/01/06 08:30:52;;;;;;;3.87;2.20;;;4.60;99.90;;;;;;5057432;28;20193;-88
2024/01/06 08:33:20;;;;;;;2.93;1.97;;;4.60;99.90;;;;;;5047958;28;20289;-87
2024/01/06 08:35:48;;;;;;;5.67;2.10;;;4.50;99.90;;;;;;5057254;28;20204;-87
2024/01/06 08:38:15;;;;;;;2.87;2.27;;;4.60;99.90;;;;;;5053996;28;20233;-86
2024/01/06 08:40:47;;;;;;;5.40;2.70;;;4.80;99.90;;;;;;5029554;28;20224;-86
2024/01/06 08:43:14;;;;;;;4.40;2.57;;;4.70;99.90;;;;;;5031576;28;20772;-90
2024/01/06 08:45:41;;;;;;;4.67;2.70;;;4.80;99.90;;;;;;5031993;28;20209;-86
2024/01/06 08:48:08;;;;;;;3.40;2.53;;;4.80;99.90;;;;;;5056159;28;20208;-88
2024/01/06 08:50:35;;;;;;;3.67;2.77;;;4.80;99.90;;;;;;5063818;28;20196;-89
2024/01/06 08:53:02;;;;;;;3.67;2.77;;;4.80;99.90;;;;;;5054082;28;20212;-86
2024/01/06 08:55:29;;;;;;;4.90;3.00;;;4.80;99.90;;;;;;5053722;28;20666;-88
2024/01/06 08:57:57;;;;;;;4.20;2.90;;;4.70;99.90;;;;;;5048699;28;20221;-89
2024/01/06 09:00:24;;;;;;;4.30;2.73;;;4.70;99.90;;;;;;5043998;28;20208;-90
2024/01/06 09:02:50;;;;;;;4.57;2.37;;;4.70;99.90;;;;;;5054511;28;20227;-89
2024/01/06 09:05:17;;;;;;;2.57;2.30;;;4.70;99.90;;;;;;5060155;28;20221;-90
2024/01/06 09:07:49;;;;;;;4.97;2.20;;;4.70;99.90;;;;;;5050171;28;20198;-86
2024/01/06 09:10:15;;;;;;;6.60;2.27;;;4.60;99.90;;;;;;5034730;28;20198;-89
2024/01/06 09:12:42;;;;;;;3.80;2.07;;;4.50;99.90;;;;;;5026302;28;20194;-88
2024/01/06 09:15:11;;;;;;;3.20;2.47;;;4.50;99.90;;;;;;5033500;28;20273;-87
2024/01/06 09:17:38;;;;;;;3.93;2.13;;;4.50;99.90;;;;;;5048876;28;20285;-88
2024/01/06 09:20:06;;;;;;;4.17;2.17;;;4.50;99.90;;;;;;5048450;28;20240;-87
2024/01/06 09:22:33;;;;;;;3.93;2.20;;;4.50;99.90;;;;;;5048690;28;20209;-87
2024/01/06 09:25:00;;;;;;;3.87;2.20;;;4.50;99.90;;;;;;5065265;28;20198;-87
2024/01/06 09:27:27;;;;;;;6.50;2.13;;;4.40;99.90;;;;;;5059828;28;20222;-87
2024/01/06 09:29:53;;;;;;;5.17;1.97;;;4.50;99.90;;;;;;5030364;28;20194;-89
2024/01/06 09:32:23;;;;;;;5.80;1.90;;;4.50;99.90;;;;;;5034134;28;20198;-87
2024/01/06 09:34:49;;;;;;;3.37;1.90;;;4.60;99.90;;;;;;5051671;28;20198;-90
2024/01/06 09:37:16;;;;;;;4.47;2.00;;;4.60;99.90;;;;;;5054801;28;20217;-86
2024/01/06 09:39:43;;;;;;;2.83;1.90;;;4.60;99.90;;;;;;5054100;28;20234;-88
2024/01/06 09:42:11;;;;;;;2.97;2.20;;;4.80;99.90;;;;;;5034927;28;20681;-89
2024/01/06 09:44:38;;;;;;;3.37;2.10;;;4.70;99.90;;;;;;5061250;28;20574;-89
2024/01/06 09:47:06;;;;;;;4.17;2.30;;;4.80;99.90;;;;;;5040564;28;20205;-88
2024/01/06 09:49:38;;;;;;;4.63;2.40;;;4.80;99.90;;;;;;5055357;28;20216;-85
2024/01/06 09:52:12;;;;;;;6.63;2.43;;;4.80;99.90;;;;;;5063647;28;20206;-86
2024/01/06 09:54:42;;;;;;;4.13;2.67;;;4.90;99.90;;;;;;5060544;28;20198;-89
2024/01/06 09:57:09;;;;;;;5.10;2.80;;;5.10;99.90;;;;;;5053778;28;20201;-88
2024/01/06 09:59:37;;;;;;;4.90;2.90;;;4.90;99.90;;;;;;5058014;28;20214;-86
2024/01/06 10:02:20;;;;;;;4.97;2.87;;;4.90;99.90;;;;;;5059598;28;20202;-87
2024/01/06 10:04:48;;;;;;;3.60;2.60;;;4.80;99.90;;;;;;5059008;28;20217;-87
2024/01/06 10:07:15;;;;;;;5.07;2.70;;;4.70;99.90;;;;;;5052240;28;20654;-87
2024/01/06 10:09:42;;;;;;;4.80;2.80;;;4.70;99.90;;;;;;5056486;28;20194;-88
2024/01/06 10:12:10;;;;;;;4.20;2.80;;;4.80;99.90;;;;;;5052229;28;20194;-87
2024/01/06 10:14:38;;;;;;;4.03;2.53;;;4.80;99.90;;;;;;5052930;28;20199;-87
2024/01/06 10:17:08;;;;;;;5.17;2.90;;;4.80;99.90;;;;;;5038828;28;20209;-86
2024/01/06 10:19:35;;;;;;;4.13;2.40;;;4.90;99.90;;;;;;5049335;28;20275;-87
2024/01/06 10:22:04;;;;;;;6.07;2.72;;;4.80;99.90;;;;;;5051313;28;20201;-87
2024/01/06 10:24:31;;;;;;;5.90;2.83;;;4.70;99.90;;;;;;5061637;28;20220;-87
2024/01/06 10:26:58;;;;;;;4.27;2.90;;;4.70;99.90;;;;;;5043274;28;20204;-87
2024/01/06 10:29:26;;;;;;;8.43;3.00;;;4.80;99.90;;;;;;5054512;28;20212;-88
2024/01/06 10:31:54;;;;;;;5.37;3.30;;;4.80;99.90;;;;;;5053660;28;20213;-88
2024/01/06 10:34:21;;;;;;;7.43;3.10;;;4.90;99.90;;;;;;5053629;28;20214;-88
2024/01/06 10:36:49;;;;;;;5.05;3.03;;;5.10;99.90;;;;;;5058386;28;20201;-88
2024/01/06 10:39:17;;;;;;;5.67;3.63;;;5.10;99.90;;;;;;5033455;28;20249;-88
2024/01/06 10:41:45;;;;;;;5.03;3.50;;;5.00;99.90;;;;;;5057030;28;20206;-88
2024/01/06 10:44:12;;;;;;;4.30;2.90;;;5.00;99.90;;;;;;5037518;28;20212;-85
2024/01/06 10:46:42;;;;;;;5.57;3.30;;;5.10;99.90;;;;;;5053925;28;20550;-83
2024/01/06 10:49:10;;;;;;;7.80;3.20;;;5.10;99.90;;;;;;5056622;28;20198;-84
2024/01/06 10:51:38;;;;;;;6.17;3.57;;;5.20;99.90;;;;;;5056674;28;20209;-84
2024/01/06 10:54:06;;;;;;;4.97;3.40;;;5.10;99.90;;;;;;5034592;28;20293;-83
2024/01/06 10:56:38;;;;;;;5.97;3.42;;;5.10;99.90;;;;;;5060272;28;20249;-84
2024/01/06 10:59:07;;;;;;;7.22;3.80;;;5.20;99.90;;;;;;5053769;28;20232;-83
2024/01/06 11:01:35;;;;;;;6.50;3.57;;;5.30;99.90;;;;;;5052744;28;20202;-84
2024/01/06 11:04:04;;;;;;;8.03;3.50;;;5.30;99.90;;;;;;5021910;28;20229;-84
2024/01/06 11:06:33;;;;;;;6.07;3.58;;;5.30;99.90;;;;;;5059192;28;20205;-85
2024/01/06 11:09:07;;;;;;;6.40;3.25;;;5.20;99.90;;;;;;5058584;28;20533;-85
2024/01/06 11:11:36;;;;;;;5.67;3.47;;;5.20;99.90;;;;;;5053730;28;20303;-85
2024/01/06 11:14:28;;;;;;;6.32;3.70;;;5.10;99.90;;;;;;5056737;28;20670;-85
2024/01/06 11:16:55;;;;;;;5.60;3.25;;;5.10;99.90;;;;;;5041590;28;20212;-84
2024/01/06 11:19:46;;;;;;;4.00;2.85;;;5.00;99.90;;;;;;5057604;28;20301;-84
2024/01/06 11:22:20;;;;;;;8.15;3.55;;;5.10;99.90;;;;;;5053300;28;20198;-85
2024/01/06 11:24:49;;;;;;;6.30;3.80;;;5.20;99.90;;;;;;5060767;28;20204;-85
2024/01/06 11:27:20;;;;;;;5.77;3.30;;;5.20;99.90;;;;;;5042281;28;20210;-84
2024/01/06 11:29:47;;;;;;;7.73;3.53;;;5.20;99.90;;;;;;5049713;28;20208;-83
2024/01/06 11:32:28;;;;;;;9.68;3.83;;;5.20;99.90;;;;;;5057269;28;20213;-83
2024/01/06 11:34:58;;;;;;;7.18;3.25;;;5.20;99.90;;;;;;5065495;28;20201;-82
2024/01/06 11:37:36;;;;;;;8.47;3.87;;;5.20;99.90;;;;;;5049697;28;20233;-82
2024/01/06 11:40:03;;;;;;;6.63;3.90;;;5.20;99.90;;;;;;5054540;28;20244;-82
2024/01/06 11:42:35;;;;;;;6.87;3.83;;;5.20;99.90;;;;;;5054902;28;20197;-83
2024/01/06 11:45:06;;;;;;;6.75;3.72;;;5.10;99.90;;;;;;5057554;28;20241;-83
2024/01/06 11:47:33;;;;;;;9.82;4.07;;;5.10;99.90;;;;;;5054189;28;20201;-83
2024/01/06 11:50:04;;;;;;;8.20;3.78;;;5.10;99.90;;;;;;5056934;28;20205;-82
2024/01/06 11:52:31;;;;;;;7.00;4.33;;;5.10;99.90;;;;;;5057561;28;20204;-83
2024/01/06 11:54:59;;;;;;;5.53;3.50;;;5.00;99.90;;;;;;5059163;28;20669;-82
2024/01/06 11:57:26;;;;;;;7.18;3.83;;;5.00;99.90;;;;;;5056457;28;20198;-82
2024/01/06 11:59:55;;;;;;;8.13;4.07;;;5.00;99.90;;;;;;5047150;28;20226;-82
2024/01/06 12:02:22;;;;;;;5.68;4.05;;;5.00;99.90;;;;;;5052822;28;20213;-82
2024/01/06 12:04:51;;;;;;;5.68;3.78;;;5.00;99.90;;;;;;5049756;28;20214;-82
2024/01/06 12:07:19;;;;;;;6.13;4.57;;;5.10;99.90;;;;;;5054086;28;20759;-83
2024/01/06 12:09:46;;;;;;;10.07;4.10;;;5.10;99.90;;;;;;5055426;28;20271;-82
2024/01/06 12:12:16;;;;;;;9.40;3.83;;;5.10;99.90;;;;;;5050308;28;20201;-82
2024/01/06 12:14:45;;;;;;;5.57;3.73;;;5.20;99.90;;;;;;5053228;28;20194;-82
2024/01/06 12:17:13;;;;;;;6.97;4.00;;;5.20;99.90;;;;;;5048399;28;20209;-82
2024/01/06 12:19:42;;;;;;;6.53;3.90;;;5.40;99.90;;;;;;5049298;28;20229;-93
2024/01/06 12:22:13;;;;;;;7.23;3.70;;;5.40;99.90;;;;;;5050894;28;20204;-82
2024/01/06 12:24:39;;;;;;;9.17;4.00;;;5.20;99.90;;;;;;5050292;28;20201;-82
2024/01/06 12:27:09;;;;;;;5.40;3.67;;;5.30;99.90;;;;;;5051977;28;20193;-82
2024/01/06 12:29:39;;;;;;;9.07;4.40;;;5.20;99.90;;;;;;5043942;28;20268;-83
2024/01/06 12:32:07;;;;;;;7.87;4.73;;;5.20;99.90;;;;;;5051756;28;20198;-83
2024/01/06 12:34:35;;;;;;;13.05;4.28;;;5.10;99.90;;;;;;5049250;28;20198;-83
2024/01/06 12:37:03;;;;;;;8.90;4.37;;;5.20;99.90;;;;;;5048037;28;21578;-83
2024/01/06 12:39:31;;;;;;;6.30;4.07;;;5.10;99.90;;;;;;5046736;28;20233;-83
2024/01/06 12:41:59;;;;;;;5.03;3.57;;;5.00;99.90;;;;;;5031268;28;20194;-83
2024/01/06 12:44:26;;;;;;;5.13;3.20;;;5.00;99.90;;;;;;5045881;28;20208;-83
2024/01/06 12:46:53;;;;;;;5.93;3.53;;;4.90;99.90;;;;;;5052384;28;20197;-84
2024/01/06 12:49:20;;;;;;;8.70;3.87;;;4.80;99.90;;;;;;5051031;28;20229;-83
2024/01/06 12:51:49;;;;;;;6.00;3.67;;;4.70;99.90;;;;;;5052561;28;20209;-82
2024/01/06 12:54:16;;;;;;;8.60;4.00;;;4.60;99.90;;;;;;5049617;28;20642;-86
2024/01/06 12:56:42;;;;;;;6.07;3.30;;;4.60;99.90;;;;;;5046262;28;20199;-84
2024/01/06 12:59:09;;;;;;;7.87;3.57;;;4.60;99.90;;;;;;5047813;28;20209;-84
2024/01/06 13:01:36;;;;;;;4.27;3.20;;;4.50;99.90;;;;;;5050373;28;20189;-85